Time;durP1;ratioP1;P1;durP2;ratioP2;P2;SDS_P1;SDS_P2;PMS_P1;PMS_P2;Temp;Humidity;BMP_temperature;BMP_pressure;BME280_temperature;BME280_humidity;BME280_pressure;Samples;Min_cycle;Max_cycle;Signal;HPM_P1;HPM_P2
2024/01/30 00:01:40;;;;;;;28.50;22.05;;;4.90;99.90;;;;;;5115232;28;20465;-31
2024/01/30 00:04:05;;;;;;;24.60;19.13;;;4.90;99.90;;;;;;5109990;28;20032;-31
2024/01/30 00:06:31;;;;;;;24.60;19.23;;;5.00;99.90;;;;;;5104346;27;20414;-31
2024/01/30 00:08:57;;;;;;;31.27;21.08;;;5.00;99.90;;;;;;5115897;28;20067;-31
2024/01/30 00:11:25;;;;;;;30.48;22.30;;;5.00;99.90;;;;;;5115967;28;20036;-31
2024/01/30 00:13:51;;;;;;;30.13;21.90;;;5.10;99.90;;;;;;5100451;28;20039;-31
2024/01/30 00:16:21;;;;;;;28.02;21.17;;;5.20;99.90;;;;;;5117156;27;20130;-31
2024/01/30 00:18:48;;;;;;;26.50;20.20;;;5.30;99.90;;;;;;5115495;28;20040;-31
2024/01/30 00:21:13;;;;;;;25.27;19.30;;;5.40;99.90;;;;;;5097684;28;20043;-31
2024/01/30 00:23:39;;;;;;;25.42;19.77;;;5.50;99.90;;;;;;5114818;28;20130;-31
2024/01/30 00:26:06;;;;;;;24.65;20.20;;;5.60;99.90;;;;;;5110007;28;20115;-31
2024/01/30 00:28:31;;;;;;;23.52;19.05;;;5.70;99.90;;;;;;5096600;28;20048;-31
2024/01/30 00:30:57;;;;;;;24.98;19.35;;;5.80;99.90;;;;;;5091287;28;20044;-31
2024/01/30 00:33:23;;;;;;;23.55;18.52;;;5.80;99.90;;;;;;5090865;28;20503;-31
2024/01/30 00:35:48;;;;;;;24.35;18.70;;;5.80;99.90;;;;;;5117778;27;20032;-31
2024/01/30 00:38:14;;;;;;;23.58;18.27;;;5.80;99.90;;;;;;5106378;27;20098;-31
2024/01/30 00:40:40;;;;;;;24.08;19.50;;;5.80;99.90;;;;;;5110068;27;20047;-31
2024/01/30 00:43:06;;;;;;;21.88;18.40;;;5.90;99.90;;;;;;5116093;27;20040;-31
2024/01/30 00:45:31;;;;;;;22.05;18.23;;;5.90;99.90;;;;;;5096411;28;20122;-31
2024/01/30 00:47:57;;;;;;;22.63;17.90;;;5.90;99.90;;;;;;5092459;28;20043;-30
2024/01/30 00:50:23;;;;;;;23.13;18.13;;;5.80;99.90;;;;;;5118368;27;20414;-30
2024/01/30 00:52:48;;;;;;;24.00;18.30;;;5.90;99.90;;;;;;5120511;27;20410;-30
2024/01/30 00:55:14;;;;;;;23.10;17.15;;;5.80;99.90;;;;;;5097086;28;20453;-30
2024/01/30 00:57:40;;;;;;;22.23;17.58;;;5.80;99.90;;;;;;5116031;27;20062;-30
2024/01/30 01:00:08;;;;;;;22.45;18.17;;;5.80;99.90;;;;;;5122201;27;20084;-30
2024/01/30 01:02:39;;;;;;;23.17;17.48;;;5.80;99.90;;;;;;5098944;28;20058;-31
2024/01/30 01:05:05;;;;;;;23.58;18.13;;;5.80;99.90;;;;;;5097794;28;20047;-32
2024/01/30 01:07:31;;;;;;;23.73;18.80;;;5.90;99.90;;;;;;5115884;28;20469;-32
2024/01/30 01:09:57;;;;;;;22.73;18.33;;;5.90;99.90;;;;;;5111834;28;20064;-31
2024/01/30 01:12:22;;;;;;;21.48;17.48;;;5.90;99.90;;;;;;5095933;28;20092;-31
2024/01/30 01:14:48;;;;;;;21.60;17.80;;;5.80;99.90;;;;;;5096125;28;20040;-32
2024/01/30 01:17:14;;;;;;;24.17;18.70;;;5.90;99.90;;;;;;5089050;28;20043;-31
2024/01/30 01:19:40;;;;;;;22.55;18.33;;;5.90;99.90;;;;;;5115237;27;20035;-31
2024/01/30 01:22:05;;;;;;;25.20;17.80;;;5.90;99.90;;;;;;5098779;27;20131;-31
2024/01/30 01:24:31;;;;;;;23.10;17.92;;;5.90;99.90;;;;;;5117022;27;20046;-31
2024/01/30 01:26:58;;;;;;;24.85;19.05;;;5.90;99.90;;;;;;5115734;27;20375;-32
2024/01/30 01:29:28;;;;;;;22.42;18.20;;;5.90;99.90;;;;;;5114763;28;20537;-32
2024/01/30 01:31:58;;;;;;;24.55;18.20;;;5.90;99.90;;;;;;5096208;28;20418;-32
2024/01/30 01:34:24;;;;;;;23.23;17.42;;;5.90;99.90;;;;;;5114063;28;20044;-31
2024/01/30 01:36:51;;;;;;;21.98;18.95;;;6.00;99.90;;;;;;5096350;28;20039;-32
2024/01/30 01:39:17;;;;;;;25.60;19.25;;;6.00;99.90;;;;;;5115131;28;20051;-30
2024/01/30 01:41:43;;;;;;;21.52;17.25;;;6.00;99.90;;;;;;5113303;28;20062;-31
2024/01/30 01:44:09;;;;;;;23.83;18.20;;;6.10;99.90;;;;;;5104760;28;20123;-31
2024/01/30 01:46:35;;;;;;;25.25;18.30;;;6.10;99.90;;;;;;5093714;28;20627;-31
2024/01/30 01:49:02;;;;;;;23.15;17.05;;;6.10;99.90;;;;;;5112897;27;20071;-31
2024/01/30 01:51:30;;;;;;;20.50;16.75;;;6.20;99.90;;;;;;5098203;28;20075;-31
2024/01/30 01:53:58;;;;;;;22.63;16.85;;;6.10;99.90;;;;;;5103568;27;20093;-31
2024/01/30 01:56:25;;;;;;;21.88;17.15;;;6.20;99.90;;;;;;5113860;28;20043;-31
2024/01/30 01:58:54;;;;;;;21.83;17.58;;;6.20;99.90;;;;;;5114080;28;20041;-31
2024/01/30 02:01:21;;;;;;;22.90;17.85;;;6.20;99.90;;;;;;5117773;27;20046;-31
2024/01/30 02:03:47;;;;;;;22.15;17.95;;;6.20;99.90;;;;;;5113594;28;20040;-31
2024/01/30 02:06:14;;;;;;;23.98;17.88;;;6.10;99.90;;;;;;5113020;27;20036;-31
2024/01/30 02:08:41;;;;;;;22.35;17.17;;;6.20;99.90;;;;;;5112422;28;20451;-31
2024/01/30 02:11:07;;;;;;;22.40;17.27;;;6.20;99.90;;;;;;5111433;28;20036;-31
2024/01/30 02:13:33;;;;;;;21.40;16.90;;;6.20;99.90;;;;;;5112733;28;20118;-31
2024/01/30 02:15:58;;;;;;;21.70;17.13;;;6.20;99.90;;;;;;5113787;28;20082;-31
2024/01/30 02:18:24;;;;;;;23.98;16.42;;;6.20;99.90;;;;;;5106832;28;20044;-31
2024/01/30 02:20:53;;;;;;;21.85;16.67;;;6.20;99.90;;;;;;5118639;27;20165;-31
2024/01/30 02:23:20;;;;;;;18.42;15.85;;;6.30;99.90;;;;;;5108777;27;20050;-31
2024/01/30 02:25:45;;;;;;;21.83;17.60;;;6.40;99.90;;;;;;5113201;28;20563;-31
2024/01/30 02:28:14;;;;;;;23.35;16.45;;;6.30;99.90;;;;;;5111367;28;20086;-31
2024/01/30 02:30:42;;;;;;;24.17;15.90;;;6.40;99.90;;;;;;5099928;28;20497;-31
2024/01/30 02:33:08;;;;;;;17.95;15.88;;;6.40;99.90;;;;;;5116323;27;20076;-31
2024/01/30 02:35:34;;;;;;;21.70;16.58;;;6.40;99.90;;;;;;5112530;27;20241;-31
2024/01/30 02:38:00;;;;;;;21.42;17.42;;;6.50;99.90;;;;;;5112927;28;20130;-31
2024/01/30 02:40:25;;;;;;;22.38;16.75;;;6.50;99.90;;;;;;5111473;28;20463;-31
2024/01/30 02:42:51;;;;;;;20.50;16.70;;;6.50;99.90;;;;;;5108799;28;20042;-31
2024/01/30 02:45:17;;;;;;;17.30;14.80;;;6.50;99.90;;;;;;5094634;28;20041;-31
2024/01/30 02:47:43;;;;;;;21.25;16.23;;;6.60;99.90;;;;;;5112801;28;20070;-31
2024/01/30 02:50:09;;;;;;;21.15;16.35;;;6.60;99.90;;;;;;5117110;27;20031;-31
2024/01/30 02:52:35;;;;;;;18.77;15.57;;;6.60;99.90;;;;;;5113937;27;20036;-31
2024/01/30 02:55:01;;;;;;;20.33;16.17;;;6.70;99.90;;;;;;5110769;28;20086;-31
2024/01/30 02:57:28;;;;;;;20.13;15.35;;;6.70;99.90;;;;;;5093899;28;20089;-31
2024/01/30 02:59:54;;;;;;;20.30;16.38;;;6.70;99.90;;;;;;5112614;28;20055;-31
2024/01/30 03:02:20;;;;;;;20.98;16.63;;;6.70;99.90;;;;;;5111933;28;20433;-31
2024/01/30 03:04:46;;;;;;;17.83;15.55;;;6.70;99.90;;;;;;5110355;28;20035;-31
2024/01/30 03:07:11;;;;;;;21.35;16.10;;;6.70;99.90;;;;;;5105770;28;20035;-31
2024/01/30 03:09:37;;;;;;;20.30;15.40;;;6.70;99.90;;;;;;5112216;28;20031;-31
2024/01/30 03:12:04;;;;;;;18.88;15.85;;;6.70;99.90;;;;;;5106541;28;20134;-31
2024/01/30 03:14:33;;;;;;;20.85;15.90;;;6.70;99.90;;;;;;5106261;28;20042;-31
2024/01/30 03:16:58;;;;;;;21.05;15.38;;;6.70;99.90;;;;;;5116114;28;20107;-31
2024/01/30 03:19:24;;;;;;;21.25;15.80;;;6.70;99.90;;;;;;5112115;28;20110;-31
2024/01/30 03:21:51;;;;;;;18.10;15.25;;;6.70;99.90;;;;;;5104704;28;20042;-31
2024/01/30 03:24:17;;;;;;;21.65;16.35;;;6.70;99.90;;;;;;5112245;28;20397;-30
2024/01/30 03:26:43;;;;;;;19.38;15.70;;;6.70;99.90;;;;;;5113403;28;20494;-30
2024/01/30 03:29:09;;;;;;;19.65;15.48;;;6.70;99.90;;;;;;5113143;28;20548;-30
2024/01/30 03:31:35;;;;;;;19.17;14.95;;;6.70;99.90;;;;;;5104304;28;20043;-30
2024/01/30 03:34:01;;;;;;;23.73;16.13;;;6.70;99.90;;;;;;5112191;28;20482;-30
2024/01/30 03:36:27;;;;;;;18.77;15.05;;;6.70;99.90;;;;;;5105632;28;20039;-30
2024/01/30 03:38:53;;;;;;;20.40;15.15;;;6.70;99.90;;;;;;5112085;28;20379;-30
2024/01/30 03:41:18;;;;;;;19.92;14.65;;;6.70;99.90;;;;;;5104550;28;20036;-30
2024/01/30 03:43:44;;;;;;;20.25;15.65;;;6.70;99.90;;;;;;5111174;28;20328;-30
2024/01/30 03:46:12;;;;;;;20.27;15.98;;;6.70;99.90;;;;;;5112311;28;20075;-30
2024/01/30 03:48:39;;;;;;;19.75;15.32;;;6.70;99.90;;;;;;5103607;28;20044;-30
2024/01/30 03:51:05;;;;;;;20.27;15.82;;;6.70;99.90;;;;;;5109527;28;20482;-30
2024/01/30 03:53:31;;;;;;;21.27;15.27;;;6.70;99.90;;;;;;5104874;28;20042;-30
2024/01/30 03:55:57;;;;;;;19.23;15.90;;;6.70;99.90;;;;;;5106052;28;21283;-30
2024/01/30 03:58:22;;;;;;;20.42;16.38;;;6.70;99.90;;;;;;5111535;28;20040;-30
2024/01/30 04:00:48;;;;;;;19.23;15.93;;;6.70;99.90;;;;;;5087492;28;20054;-30
2024/01/30 04:03:17;;;;;;;19.05;15.85;;;6.70;99.90;;;;;;5111417;28;20043;-30
2024/01/30 04:05:42;;;;;;;23.25;16.40;;;6.70;99.90;;;;;;5110093;28;20069;-30
2024/01/30 04:08:08;;;;;;;21.40;15.85;;;6.80;99.90;;;;;;5112222;28;20120;-30
2024/01/30 04:10:34;;;;;;;20.90;16.20;;;6.80;99.90;;;;;;5093113;28;20054;-30
2024/01/30 04:13:00;;;;;;;18.48;15.27;;;6.90;99.90;;;;;;5108691;28;20508;-30
2024/01/30 04:15:26;;;;;;;20.95;16.50;;;6.90;99.90;;;;;;5110351;28;20023;-30
2024/01/30 04:17:52;;;;;;;19.25;15.27;;;6.90;99.90;;;;;;5111702;28;20122;-30
2024/01/30 04:20:17;;;;;;;20.50;16.42;;;6.90;99.90;;;;;;5104250;28;20059;-30
2024/01/30 04:22:44;;;;;;;21.45;16.00;;;6.90;99.90;;;;;;5111163;28;20112;-30
2024/01/30 04:25:11;;;;;;;19.70;15.27;;;6.90;99.90;;;;;;5111859;28;20058;-30
2024/01/30 04:27:37;;;;;;;23.17;16.25;;;6.90;99.90;;;;;;5111320;28;20036;-30
2024/01/30 04:30:03;;;;;;;20.73;16.50;;;7.00;99.90;;;;;;5111959;28;20410;-30
2024/01/30 04:32:29;;;;;;;18.88;16.45;;;7.00;99.90;;;;;;5109865;28;20072;-30
2024/01/30 04:34:55;;;;;;;20.13;16.45;;;7.00;99.90;;;;;;5107660;28;20106;-30
2024/01/30 04:37:21;;;;;;;19.75;16.13;;;7.00;99.90;;;;;;5107304;28;20040;-30
2024/01/30 04:39:46;;;;;;;20.92;16.33;;;7.00;99.90;;;;;;5105205;28;20127;-30
2024/01/30 04:42:12;;;;;;;21.17;16.58;;;7.00;99.90;;;;;;5108942;28;20385;-30
2024/01/30 04:44:38;;;;;;;22.48;16.73;;;7.00;99.90;;;;;;5108652;28;20038;-30
2024/01/30 04:47:05;;;;;;;21.00;15.52;;;7.00;99.90;;;;;;5104808;28;20123;-30
2024/01/30 04:49:32;;;;;;;23.40;16.08;;;7.00;99.90;;;;;;5114930;28;20035;-30
2024/01/30 04:51:58;;;;;;;22.50;16.77;;;7.00;99.90;;;;;;5097018;28;20035;-30
2024/01/30 04:54:24;;;;;;;23.13;15.90;;;7.00;99.90;;;;;;5114570;28;20536;-30
2024/01/30 04:56:50;;;;;;;20.90;15.77;;;7.10;99.90;;;;;;5115501;28;20082;-30
2024/01/30 04:59:15;;;;;;;19.75;16.48;;;7.10;99.90;;;;;;5111449;28;20542;-30
2024/01/30 05:01:41;;;;;;;22.63;16.15;;;7.10;99.90;;;;;;5114411;28;20498;-30
2024/01/30 05:04:11;;;;;;;22.55;17.40;;;7.20;99.90;;;;;;5115139;28;20073;-30
2024/01/30 05:06:37;;;;;;;21.55;16.80;;;7.20;99.90;;;;;;5114463;28;20036;-30
2024/01/30 05:09:05;;;;;;;22.92;17.13;;;7.20;99.90;;;;;;5114787;28;20502;-30
2024/01/30 05:11:31;;;;;;;22.73;16.30;;;7.20;99.90;;;;;;5096079;28;20070;-30
2024/01/30 05:13:57;;;;;;;20.75;16.48;;;7.20;99.90;;;;;;5114501;28;20089;-30
2024/01/30 05:16:22;;;;;;;24.05;16.95;;;7.20;99.90;;;;;;5114373;28;20031;-30
2024/01/30 05:18:48;;;;;;;20.88;17.05;;;7.20;99.90;;;;;;5114373;28;20046;-30
2024/01/30 05:21:14;;;;;;;21.38;17.35;;;7.20;99.90;;;;;;5099470;28;20044;-30
2024/01/30 05:23:41;;;;;;;24.05;17.02;;;7.20;99.90;;;;;;5087996;28;20478;-32
2024/01/30 05:26:08;;;;;;;21.55;17.13;;;7.20;99.90;;;;;;5109824;28;20261;-32
2024/01/30 05:28:33;;;;;;;21.65;17.17;;;7.20;99.90;;;;;;5094891;28;20133;-32
2024/01/30 05:30:59;;;;;;;21.98;16.45;;;7.20;99.90;;;;;;5098644;28;20505;-32
2024/01/30 05:33:25;;;;;;;23.25;17.58;;;7.20;99.90;;;;;;5116700;27;20116;-30
2024/01/30 05:35:54;;;;;;;20.67;17.27;;;7.20;99.90;;;;;;5127400;27;20122;-30
2024/01/30 05:38:20;;;;;;;21.92;16.83;;;7.20;99.90;;;;;;5119096;27;20052;-30
2024/01/30 05:40:45;;;;;;;21.88;16.55;;;7.20;99.90;;;;;;5114876;28;20050;-30
2024/01/30 05:43:11;;;;;;;21.52;16.63;;;7.20;99.90;;;;;;5125073;27;20086;-30
2024/01/30 05:45:37;;;;;;;24.00;17.95;;;7.20;99.90;;;;;;5111477;27;20052;-31
2024/01/30 05:48:04;;;;;;;20.58;16.77;;;7.20;99.90;;;;;;5112207;28;20039;-31
2024/01/30 05:50:30;;;;;;;21.30;16.85;;;7.20;99.90;;;;;;5113576;28;20035;-32
2024/01/30 05:52:56;;;;;;;22.05;17.20;;;7.20;99.90;;;;;;5110001;28;20118;-30
2024/01/30 05:55:21;;;;;;;20.65;16.73;;;7.20;99.90;;;;;;5114303;28;20046;-30
2024/01/30 05:57:47;;;;;;;20.73;16.92;;;7.20;99.90;;;;;;5114131;28;20462;-30
2024/01/30 06:00:13;;;;;;;20.85;16.25;;;7.20;99.90;;;;;;5102172;28;20043;-30
2024/01/30 06:02:39;;;;;;;21.30;16.48;;;7.20;99.90;;;;;;5114572;28;20530;-30
2024/01/30 06:05:05;;;;;;;18.42;16.10;;;7.20;99.90;;;;;;5108613;28;20107;-30
2024/01/30 06:07:31;;;;;;;23.23;17.52;;;7.20;99.90;;;;;;5112525;28;20052;-30
2024/01/30 06:09:57;;;;;;;21.38;17.52;;;7.20;99.90;;;;;;5114265;28;20490;-30
2024/01/30 06:12:23;;;;;;;18.95;16.48;;;7.20;99.90;;;;;;5113792;28;20096;-32
2024/01/30 06:14:49;;;;;;;23.42;16.55;;;7.20;99.90;;;;;;5104662;28;20191;-31
2024/01/30 06:17:14;;;;;;;21.00;16.75;;;7.30;99.90;;;;;;5113292;28;20047;-31
2024/01/30 06:19:41;;;;;;;21.33;16.45;;;7.30;99.90;;;;;;5112434;28;20043;-31
2024/01/30 06:22:07;;;;;;;21.38;16.85;;;7.20;99.90;;;;;;5112981;28;20067;-31
2024/01/30 06:24:34;;;;;;;20.85;16.73;;;7.30;99.90;;;;;;5107024;28;20117;-31
2024/01/30 06:26:59;;;;;;;21.35;16.20;;;7.20;99.90;;;;;;5116260;27;20039;-32
2024/01/30 06:29:26;;;;;;;21.85;16.17;;;7.20;99.90;;;;;;5095096;28;20040;-32
2024/01/30 06:31:52;;;;;;;22.38;16.58;;;7.20;99.90;;;;;;5094571;28;20631;-31
2024/01/30 06:34:18;;;;;;;22.55;16.02;;;7.20;99.90;;;;;;5086055;28;20088;-31
2024/01/30 06:36:44;;;;;;;18.05;15.73;;;7.30;99.90;;;;;;5067193;28;20058;-31
2024/01/30 06:39:09;;;;;;;19.70;16.27;;;7.30;99.90;;;;;;5091327;28;20036;-31
2024/01/30 06:41:35;;;;;;;20.75;16.83;;;7.30;99.90;;;;;;5083097;28;20035;-31
2024/01/30 06:44:06;;;;;;;21.75;16.95;;;7.30;99.90;;;;;;5092860;28;20036;-31
2024/01/30 06:46:32;;;;;;;19.00;16.05;;;7.30;99.90;;;;;;5092036;28;20566;-32
2024/01/30 06:48:58;;;;;;;21.13;16.30;;;7.30;99.90;;;;;;5090413;28;20047;-31
2024/01/30 06:51:24;;;;;;;21.67;15.65;;;7.30;99.90;;;;;;5091132;28;20521;-32
2024/01/30 06:53:49;;;;;;;19.73;16.08;;;7.30;99.90;;;;;;5092886;28;20423;-31
2024/01/30 06:56:20;;;;;;;17.98;15.40;;;7.30;99.90;;;;;;5092103;28;20375;-31
2024/01/30 06:58:47;;;;;;;21.05;15.63;;;7.30;99.90;;;;;;5091220;28;20096;-31
2024/01/30 07:01:14;;;;;;;21.85;15.32;;;7.30;99.90;;;;;;5085870;28;20040;-31
2024/01/30 07:03:40;;;;;;;21.98;15.57;;;7.30;99.90;;;;;;5089999;28;20495;-32
2024/01/30 07:06:05;;;;;;;21.77;15.80;;;7.30;99.90;;;;;;5087696;28;20051;-32
2024/01/30 07:08:31;;;;;;;21.95;15.98;;;7.30;99.90;;;;;;5085619;28;20039;-32
2024/01/30 07:10:57;;;;;;;21.02;15.57;;;7.30;99.90;;;;;;5090026;28;20043;-31
2024/01/30 07:13:23;;;;;;;20.25;15.95;;;7.30;99.90;;;;;;5089289;28;20035;-31
2024/01/30 07:15:48;;;;;;;22.40;15.80;;;7.40;99.90;;;;;;5085135;28;20487;-31
2024/01/30 07:18:14;;;;;;;18.70;15.50;;;7.30;99.90;;;;;;5089943;28;20044;-31
2024/01/30 07:20:46;;;;;;;19.27;15.63;;;7.40;99.90;;;;;;5090756;28;20044;-32
2024/01/30 07:23:13;;;;;;;20.13;16.13;;;7.40;99.90;;;;;;5091935;28;20044;-31
2024/01/30 07:25:43;;;;;;;18.38;15.73;;;7.40;99.90;;;;;;5080504;28;20049;-31
2024/01/30 07:28:10;;;;;;;20.35;14.88;;;7.40;99.90;;;;;;5089972;28;20048;-31
2024/01/30 07:30:36;;;;;;;20.25;15.15;;;7.50;99.90;;;;;;5091768;28;20149;-32
2024/01/30 07:33:02;;;;;;;17.83;15.57;;;7.50;99.90;;;;;;5088903;28;20506;-31
2024/01/30 07:35:28;;;;;;;19.05;14.27;;;7.50;99.90;;;;;;5112386;28;20055;-31
2024/01/30 07:37:54;;;;;;;19.58;15.05;;;7.50;99.90;;;;;;5104687;28;20035;-31
2024/01/30 07:40:20;;;;;;;24.60;15.48;;;7.60;99.90;;;;;;5069963;28;20046;-31
2024/01/30 07:42:46;;;;;;;21.50;15.38;;;7.60;99.90;;;;;;5108569;28;20104;-31
2024/01/30 07:45:11;;;;;;;18.35;14.55;;;7.60;99.90;;;;;;5094045;28;20040;-31
2024/01/30 07:47:37;;;;;;;18.65;14.98;;;7.60;99.90;;;;;;5111989;28;20035;-32
2024/01/30 07:50:03;;;;;;;18.10;14.80;;;7.60;99.90;;;;;;5106877;28;20122;-31
2024/01/30 07:52:29;;;;;;;19.80;14.23;;;7.60;99.90;;;;;;5094729;28;20031;-31
2024/01/30 07:54:55;;;;;;;18.58;14.93;;;7.60;99.90;;;;;;5116940;28;20455;-32
2024/01/30 07:57:21;;;;;;;20.20;15.75;;;7.70;99.90;;;;;;5104491;28;20076;-31
2024/01/30 07:59:46;;;;;;;17.90;14.35;;;7.70;99.90;;;;;;5111773;28;20051;-31
2024/01/30 08:02:13;;;;;;;20.70;15.82;;;7.70;99.90;;;;;;5108269;28;20398;-31
2024/01/30 08:04:39;;;;;;;21.00;15.55;;;7.70;99.90;;;;;;5111422;28;20035;-31
2024/01/30 08:07:04;;;;;;;41.67;26.67;;;7.70;99.90;;;;;;5111492;28;20046;-32
2024/01/30 08:09:30;;;;;;;18.77;14.52;;;7.70;99.90;;;;;;5106408;28;20028;-31
2024/01/30 08:11:56;;;;;;;18.23;14.05;;;7.80;99.90;;;;;;5109407;28;20031;-31
2024/01/30 08:14:22;;;;;;;20.05;14.23;;;7.80;99.90;;;;;;5114091;28;20040;-31
2024/01/30 08:16:48;;;;;;;24.92;18.33;;;7.80;99.90;;;;;;5110426;28;20036;-32
2024/01/30 08:19:15;;;;;;;18.27;14.65;;;7.80;99.90;;;;;;5112245;27;20051;-31
2024/01/30 08:21:40;;;;;;;18.98;14.70;;;7.80;99.90;;;;;;5096932;28;20039;-31
2024/01/30 08:24:07;;;;;;;18.73;14.48;;;7.80;99.90;;;;;;5113314;28;20051;-31
2024/01/30 08:26:33;;;;;;;20.67;14.70;;;7.80;99.90;;;;;;5118386;27;20032;-31
2024/01/30 08:28:59;;;;;;;18.35;14.82;;;7.90;99.90;;;;;;5117066;27;20071;-32
2024/01/30 08:31:25;;;;;;;17.45;14.65;;;7.90;99.90;;;;;;5109044;28;20461;-32
2024/01/30 08:33:51;;;;;;;21.20;14.60;;;7.90;99.90;;;;;;5110899;28;20105;-31
2024/01/30 08:36:17;;;;;;;17.75;14.00;;;7.90;99.90;;;;;;5097266;27;20402;-31
2024/01/30 08:38:43;;;;;;;19.35;14.52;;;8.00;99.90;;;;;;5101166;27;20509;-31
2024/01/30 08:41:09;;;;;;;17.70;14.18;;;8.00;99.90;;;;;;5119266;27;20031;-31
2024/01/30 08:43:34;;;;;;;19.40;14.13;;;8.00;99.90;;;;;;5114013;28;20039;-31
2024/01/30 08:46:01;;;;;;;18.63;14.05;;;8.10;99.90;;;;;;5111623;28;20448;-31
2024/01/30 08:48:27;;;;;;;15.07;12.82;;;8.10;99.90;;;;;;5107219;27;20440;-31
2024/01/30 08:50:52;;;;;;;20.60;14.85;;;8.20;99.90;;;;;;5114949;28;20498;-32
2024/01/30 08:53:18;;;;;;;20.63;14.50;;;8.20;99.90;;;;;;5114881;27;20035;-31
2024/01/30 08:55:45;;;;;;;18.35;12.80;;;8.30;99.90;;;;;;5121832;27;20043;-31
2024/01/30 08:58:11;;;;;;;18.13;13.82;;;8.30;99.90;;;;;;5110027;28;20066;-31
2024/01/30 09:00:37;;;;;;;17.83;13.75;;;8.30;99.90;;;;;;5104495;27;20070;-31
2024/01/30 09:03:03;;;;;;;21.13;13.15;;;8.40;99.90;;;;;;5114299;28;20035;-31
2024/01/30 09:05:29;;;;;;;13.80;12.15;;;8.40;99.90;;;;;;5089789;28;20123;-31
2024/01/30 09:07:55;;;;;;;17.00;13.18;;;8.50;99.90;;;;;;5113273;28;20480;-31
2024/01/30 09:10:20;;;;;;;16.67;12.82;;;8.50;99.90;;;;;;5114825;27;20047;-31
2024/01/30 09:12:47;;;;;;;17.10;13.25;;;8.50;99.90;;;;;;5110472;28;20119;-31
2024/01/30 09:15:13;;;;;;;16.95;13.30;;;8.50;99.90;;;;;;5114876;28;20044;-31
2024/01/30 09:17:38;;;;;;;16.95;14.73;;;8.50;99.90;;;;;;5113776;28;20039;-31
2024/01/30 09:20:05;;;;;;;15.50;12.85;;;8.60;99.90;;;;;;5109030;28;20152;-31
2024/01/30 09:22:31;;;;;;;14.60;12.63;;;8.60;99.90;;;;;;5110098;28;20066;-32
2024/01/30 09:24:57;;;;;;;15.88;13.13;;;8.70;99.90;;;;;;5108599;28;20066;-32
2024/01/30 09:27:23;;;;;;;14.88;12.00;;;8.70;99.90;;;;;;5110092;28;20449;-32
2024/01/30 09:29:49;;;;;;;17.00;12.85;;;8.80;99.90;;;;;;5114229;28;20036;-32
2024/01/30 09:32:15;;;;;;;14.57;12.82;;;9.00;99.90;;;;;;5106983;28;20506;-32
2024/01/30 09:34:41;;;;;;;15.80;13.10;;;9.10;99.90;;;;;;5103561;27;20051;-32
2024/01/30 09:37:07;;;;;;;17.08;12.55;;;9.20;99.90;;;;;;5104212;28;20085;-32
2024/01/30 09:39:33;;;;;;;18.73;13.60;;;9.30;99.90;;;;;;5105359;28;20123;-32
2024/01/30 09:42:02;;;;;;;17.60;12.98;;;9.40;99.90;;;;;;5102768;28;20032;-32
2024/01/30 09:44:30;;;;;;;16.48;12.27;;;9.40;99.90;;;;;;5107080;28;20509;-32
2024/01/30 09:46:58;;;;;;;16.10;12.63;;;9.40;99.90;;;;;;5107021;28;20078;-32
2024/01/30 09:49:25;;;;;;;18.27;12.07;;;9.40;99.90;;;;;;5108813;28;20058;-32
2024/01/30 09:51:52;;;;;;;14.25;11.10;;;9.30;99.90;;;;;;5100723;28;20490;-32
2024/01/30 09:54:19;;;;;;;14.65;11.48;;;9.30;99.90;;;;;;5083676;28;20114;-32
2024/01/30 09:56:47;;;;;;;19.00;11.70;;;9.30;99.90;;;;;;5095388;28;20040;-32
2024/01/30 09:59:13;;;;;;;16.88;11.18;;;9.40;99.90;;;;;;5112709;28;20105;-32
2024/01/30 10:01:39;;;;;;;16.60;11.65;;;9.40;99.90;;;;;;5108741;28;20398;-32
2024/01/30 10:04:05;;;;;;;14.63;11.65;;;9.50;99.90;;;;;;5090093;28;20047;-32
2024/01/30 10:06:31;;;;;;;18.80;11.18;;;9.50;99.90;;;;;;5111496;28;20115;-32
2024/01/30 10:08:57;;;;;;;17.13;12.13;;;9.60;99.90;;;;;;5095444;28;20126;-32
2024/01/30 10:11:23;;;;;;;13.23;11.00;;;9.60;99.90;;;;;;5106865;28;20180;-32
2024/01/30 10:13:49;;;;;;;16.33;11.77;;;9.80;99.90;;;;;;5111922;28;20061;-31
2024/01/30 10:16:16;;;;;;;13.65;10.88;;;9.90;99.90;;;;;;5108074;28;20440;-32
2024/01/30 10:18:42;;;;;;;16.95;12.05;;;9.90;99.90;;;;;;5113678;27;20046;-32
2024/01/30 10:21:09;;;;;;;17.25;11.88;;;10.00;99.90;;;;;;5119352;27;20051;-32
2024/01/30 10:23:36;;;;;;;13.88;11.48;;;10.10;99.90;;;;;;5113660;28;20051;-32
2024/01/30 10:26:07;;;;;;;15.32;11.48;;;10.10;99.90;;;;;;5112638;28;20047;-32
2024/01/30 10:28:33;;;;;;;15.23;10.95;;;10.10;99.90;;;;;;5117402;27;20405;-32
2024/01/30 10:31:03;;;;;;;15.13;11.20;;;10.20;99.90;;;;;;5116907;27;20398;-32
2024/01/30 10:33:30;;;;;;;15.15;11.07;;;10.30;99.90;;;;;;5096833;28;20063;-32
2024/01/30 10:36:05;;;;;;;17.08;11.75;;;10.30;99.90;;;;;;5109422;28;20167;-32
2024/01/30 10:38:32;;;;;;;16.95;11.27;;;10.40;99.90;;;;;;5091856;28;20044;-32
2024/01/30 10:41:00;;;;;;;14.85;11.48;;;10.40;99.90;;;;;;5094026;28;20039;-32
2024/01/30 10:43:33;;;;;;;18.42;12.65;;;10.40;99.90;;;;;;5105296;28;20474;-32
2024/01/30 10:46:15;;;;;;;19.27;12.10;;;10.40;99.90;;;;;;5112152;28;20048;-32
2024/01/30 10:48:46;;;;;;;16.58;11.45;;;10.40;99.90;;;;;;5103197;28;20046;-32
2024/01/30 10:51:14;;;;;;;20.02;13.32;;;10.40;99.90;;;;;;5108100;28;20055;-32
2024/01/30 10:53:41;;;;;;;17.48;12.70;;;10.40;99.90;;;;;;5112512;28;20406;-32
2024/01/30 10:56:10;;;;;;;15.23;11.85;;;10.50;99.90;;;;;;5112177;28;20075;-32
2024/01/30 10:58:35;;;;;;;14.32;10.82;;;10.50;99.90;;;;;;5112493;28;20036;-32
2024/01/30 11:01:02;;;;;;;17.10;10.80;;;10.50;99.90;;;;;;5112334;28;20039;-32
2024/01/30 11:03:28;;;;;;;15.57;11.23;;;10.50;99.90;;;;;;5096002;28;20141;-32
2024/01/30 11:05:53;;;;;;;15.27;12.95;;;10.50;99.90;;;;;;5108931;27;20119;-32
2024/01/30 11:08:24;;;;;;;17.05;11.45;;;10.60;99.90;;;;;;5111280;28;20043;-32
2024/01/30 11:10:55;;;;;;;12.32;10.45;;;10.60;99.90;;;;;;5107875;28;20046;-32
2024/01/30 11:13:21;;;;;;;15.63;10.63;;;10.60;99.90;;;;;;5093077;28;20063;-32
2024/01/30 11:15:50;;;;;;;16.38;11.07;;;10.60;99.90;;;;;;5115227;27;20529;-32
2024/01/30 11:18:25;;;;;;;15.02;9.82;;;10.70;99.90;;;;;;5113769;27;20463;-32
2024/01/30 11:20:51;;;;;;;16.00;10.95;;;10.70;99.90;;;;;;5111675;28;20047;-32
2024/01/30 11:23:17;;;;;;;14.75;10.65;;;10.70;99.90;;;;;;5104244;28;20077;-32
2024/01/30 11:25:47;;;;;;;14.77;11.05;;;10.70;99.90;;;;;;5094286;28;20027;-32
2024/01/30 11:28:18;;;;;;;20.75;12.57;;;10.70;99.90;;;;;;5099059;28;20043;-32
2024/01/30 11:30:46;;;;;;;16.52;11.75;;;10.70;99.90;;;;;;5106783;28;20085;-32
2024/01/30 11:33:14;;;;;;;16.95;11.68;;;10.70;99.90;;;;;;5112188;28;20056;-32
2024/01/30 11:35:44;;;;;;;16.77;11.63;;;10.70;99.90;;;;;;5110665;28;20104;-32
2024/01/30 11:38:13;;;;;;;14.30;11.70;;;10.70;99.90;;;;;;5107598;27;20119;-32
2024/01/30 11:40:39;;;;;;;16.02;11.05;;;10.70;99.90;;;;;;5101588;28;20173;-32
2024/01/30 11:43:06;;;;;;;15.13;11.57;;;10.70;99.90;;;;;;5093102;28;20494;-32
2024/01/30 11:45:33;;;;;;;15.35;10.95;;;10.70;99.90;;;;;;5111585;28;20128;-32
2024/01/30 11:48:05;;;;;;;14.00;10.95;;;10.70;99.90;;;;;;5111978;28;20218;-32
2024/01/30 11:50:34;;;;;;;17.67;11.45;;;10.80;99.90;;;;;;5093656;28;20120;-32
2024/01/30 11:53:00;;;;;;;15.40;11.23;;;10.80;99.90;;;;;;5111095;28;20043;-32
2024/01/30 11:55:26;;;;;;;14.00;11.40;;;10.80;99.90;;;;;;5117670;27;20455;-32
2024/01/30 11:57:56;;;;;;;13.63;11.35;;;10.70;99.90;;;;;;5114734;27;20115;-32
2024/01/30 12:00:22;;;;;;;15.63;12.25;;;10.80;99.90;;;;;;5118865;27;20402;-32
2024/01/30 12:02:55;;;;;;;15.18;11.57;;;10.70;99.90;;;;;;5112970;27;20069;-32
2024/01/30 12:05:22;;;;;;;18.52;12.20;;;10.70;99.90;;;;;;5111950;27;20075;-32
2024/01/30 12:07:48;;;;;;;17.23;12.32;;;10.80;99.90;;;;;;5107554;27;20048;-32
2024/01/30 12:10:15;;;;;;;15.40;12.15;;;10.80;99.90;;;;;;5094072;27;20046;-32
2024/01/30 12:12:55;;;;;;;14.55;11.82;;;10.80;99.90;;;;;;5112169;28;20119;-32
2024/01/30 12:15:22;;;;;;;16.98;12.02;;;10.90;99.90;;;;;;5116017;27;20074;-32
2024/01/30 12:17:48;;;;;;;15.55;11.75;;;10.90;99.90;;;;;;5118668;27;20549;-32
2024/01/30 12:20:23;;;;;;;14.50;11.98;;;10.90;99.90;;;;;;5115768;27;20082;-32
2024/01/30 12:22:49;;;;;;;14.80;11.35;;;11.00;99.90;;;;;;5092732;28;20062;-32
2024/01/30 12:25:17;;;;;;;16.80;11.65;;;11.00;99.90;;;;;;5099894;28;20051;-32
2024/01/30 12:27:45;;;;;;;15.55;11.73;;;11.10;99.90;;;;;;5111436;27;20086;-32
2024/01/30 12:30:14;;;;;;;15.18;11.60;;;11.10;99.90;;;;;;5118327;27;20043;-32
2024/01/30 12:32:42;;;;;;;18.63;12.95;;;11.10;99.90;;;;;;5116743;27;20356;-32